Time;durP1;ratioP1;P1;durP2;ratioP2;P2;SDS_P1;SDS_P2;PMS_P1;PMS_P2;Temp;Humidity;BMP_temperature;BMP_pressure;BME280_temperature;BME280_humidity;BME280_pressure;Samples;Min_cycle;Max_cycle;Signal;HPM_P1;HPM_P2
2022/01/24 00:01:37;;;;;;;8.63;6.33;;;6.60;99.90;;;;;;5058696;28;20461;-51
2022/01/24 00:04:03;;;;;;;7.60;5.60;;;6.60;99.90;;;;;;5059744;28;20492;-49
2022/01/24 00:06:31;;;;;;;10.67;6.70;;;6.50;99.90;;;;;;5058329;28;20871;-52
2022/01/24 00:08:58;;;;;;;8.77;6.53;;;6.60;99.90;;;;;;5050665;28;20827;-48
2022/01/24 00:11:29;;;;;;;12.17;6.20;;;6.60;99.90;;;;;;5060071;28;20465;-47
2022/01/24 00:16:31;;;;;;;7.30;6.40;;;6.60;99.90;;;;;;5067435;28;20830;-48
2022/01/24 00:26:54;;;;;;;8.40;6.47;;;6.50;99.90;;;;;;5064047;28;20567;-51
2022/01/24 00:29:22;;;;;;;7.50;5.40;;;6.50;99.90;;;;;;5067009;28;20436;-52
2022/01/24 00:31:49;;;;;;;12.23;5.70;;;6.40;99.90;;;;;;5061650;28;20443;-48
2022/01/24 00:34:16;;;;;;;9.40;6.63;;;6.30;99.90;;;;;;5063307;28;20504;-47
2022/01/24 00:36:46;;;;;;;9.30;6.77;;;6.40;99.90;;;;;;5064526;28;20409;-51
2022/01/24 00:39:11;;;;;;;8.90;6.20;;;6.30;99.90;;;;;;5050280;28;20456;-47
2022/01/24 00:41:58;;;;;;;7.07;6.03;;;6.40;99.90;;;;;;5046742;28;21106;-51
2022/01/24 00:46:57;;;;;;;10.70;6.10;;;6.30;99.90;;;;;;5066112;28;20448;-51
2022/01/24 00:49:45;;;;;;;9.20;6.53;;;6.30;99.90;;;;;;5063209;28;20574;-50
2022/01/24 00:54:53;;;;;;;7.47;5.70;;;6.30;99.90;;;;;;5064630;28;20432;-53
2022/01/24 00:57:20;;;;;;;7.77;6.20;;;6.30;99.90;;;;;;5063042;28;20429;-48
2022/01/24 00:59:47;;;;;;;7.47;5.20;;;6.30;99.90;;;;;;5062949;28;20583;-49
2022/01/24 01:02:15;;;;;;;9.10;6.60;;;6.20;99.90;;;;;;5066380;28;20994;-51
2022/01/24 01:18:21;;;;;;;10.80;5.50;;;5.90;99.90;;;;;;5061873;28;20501;-50
2022/01/24 01:23:29;;;;;;;7.33;5.20;;;5.70;99.90;;;;;;5062495;28;20460;-48
2022/01/24 01:25:56;;;;;;;8.30;4.80;;;5.70;99.90;;;;;;5060492;28;20472;-49
2022/01/24 01:28:23;;;;;;;6.30;5.00;;;5.70;99.90;;;;;;5065101;28;20417;-48
2022/01/24 01:30:52;;;;;;;7.17;5.00;;;5.60;99.90;;;;;;5063126;28;20421;-47
2022/01/24 01:36:12;;;;;;;6.30;4.97;;;5.60;99.90;;;;;;5066112;28;20445;-48
2022/01/24 01:39:16;;;;;;;8.97;5.80;;;5.60;99.90;;;;;;5061325;28;20197;-50
2022/01/24 01:52:57;;;;;;;11.07;7.07;;;5.30;99.90;;;;;;5065710;28;20487;-49
2022/01/24 01:55:37;;;;;;;9.50;6.70;;;5.40;99.90;;;;;;5062229;28;20571;-48
2022/01/24 01:58:15;;;;;;;9.70;6.77;;;5.40;99.90;;;;;;5061301;28;20410;-48
2022/01/24 02:01:01;;;;;;;8.80;7.27;;;5.30;99.90;;;;;;5064841;28;20541;-48
2022/01/24 02:03:28;;;;;;;8.53;6.70;;;5.30;99.90;;;;;;5060580;28;20452;-50
2022/01/24 02:05:54;;;;;;;8.83;6.23;;;5.40;99.90;;;;;;5059923;28;20573;-48
2022/01/24 02:08:30;;;;;;;9.23;6.53;;;5.30;99.90;;;;;;5060504;28;20441;-51
2022/01/24 02:10:57;;;;;;;8.13;5.90;;;5.30;99.90;;;;;;5059781;28;20425;-50
2022/01/24 02:13:25;;;;;;;10.47;7.33;;;5.30;99.90;;;;;;5063468;28;20458;-48
2022/01/24 02:18:41;;;;;;;10.53;7.00;;;5.10;99.90;;;;;;5062352;28;20447;-50
2022/01/24 02:23:45;;;;;;;9.63;6.97;;;5.20;99.90;;;;;;5057498;28;20969;-50
2022/01/24 02:26:16;;;;;;;10.07;7.90;;;5.20;99.90;;;;;;5063983;28;20528;-50
2022/01/24 02:29:09;;;;;;;7.53;6.33;;;5.10;99.90;;;;;;5057624;28;20441;-47
2022/01/24 02:34:05;;;;;;;11.80;7.87;;;5.10;99.90;;;;;;5062084;28;20547;-50
2022/01/24 02:36:30;;;;;;;9.23;7.70;;;5.20;99.90;;;;;;5058061;28;20441;-51
2022/01/24 02:49:29;;;;;;;9.10;6.43;;;5.20;99.90;;;;;;5059470;28;20453;-49
2022/01/24 02:52:08;;;;;;;10.27;6.73;;;5.30;99.90;;;;;;5063620;28;20435;-49
2022/01/24 02:54:35;;;;;;;8.97;6.57;;;5.20;99.90;;;;;;5061370;28;20493;-48
2022/01/24 02:57:02;;;;;;;15.50;8.13;;;5.20;99.90;;;;;;5058528;28;20467;-49
2022/01/24 02:59:28;;;;;;;8.20;6.97;;;5.20;99.90;;;;;;5061589;28;20488;-47
2022/01/24 03:01:54;;;;;;;9.53;7.10;;;5.30;99.90;;;;;;5061849;28;20969;-49
2022/01/24 03:04:19;;;;;;;10.00;6.70;;;5.40;99.90;;;;;;5058077;28;20565;-47
2022/01/24 03:06:45;;;;;;;9.17;6.07;;;5.30;99.90;;;;;;5061961;28;20417;-51
2022/01/24 03:09:12;;;;;;;10.03;6.50;;;5.20;99.90;;;;;;5059594;28;20745;-47
2022/01/24 03:14:36;;;;;;;9.50;6.70;;;5.30;99.90;;;;;;5041146;28;20470;-47
2022/01/24 03:17:04;;;;;;;11.40;7.30;;;5.20;99.90;;;;;;5061762;28;20421;-48
2022/01/24 03:19:30;;;;;;;7.30;6.60;;;5.30;99.90;;;;;;5047072;28;20457;-49
2022/01/24 03:21:55;;;;;;;10.00;7.20;;;5.20;99.90;;;;;;5056759;28;20892;-49
2022/01/24 03:24:21;;;;;;;9.70;6.93;;;5.20;99.90;;;;;;5062046;28;20270;-48
2022/01/24 03:26:47;;;;;;;15.67;7.53;;;5.20;99.90;;;;;;5042747;28;20210;-48
2022/01/24 03:29:13;;;;;;;9.57;6.43;;;5.10;99.90;;;;;;5061396;28;20626;-47
2022/01/24 03:31:40;;;;;;;8.07;6.43;;;5.10;99.90;;;;;;5058777;28;20734;-47
2022/01/24 03:34:06;;;;;;;7.97;6.80;;;5.20;99.90;;;;;;5058334;28;20458;-49
2022/01/24 03:36:32;;;;;;;7.83;6.50;;;5.10;99.90;;;;;;5063597;28;20934;-48
2022/01/24 03:38:58;;;;;;;8.17;6.70;;;5.10;99.90;;;;;;5045325;28;20461;-48
2022/01/24 03:41:23;;;;;;;9.83;7.30;;;5.10;99.90;;;;;;5063314;28;20418;-47
2022/01/24 03:43:49;;;;;;;9.93;6.97;;;5.20;99.90;;;;;;5058631;28;20985;-47
2022/01/24 03:48:52;;;;;;;8.23;6.23;;;5.20;99.90;;;;;;5064133;28;20211;-50
2022/01/24 03:51:19;;;;;;;12.27;7.20;;;5.10;99.90;;;;;;5057459;28;20428;-47
2022/01/24 03:53:46;;;;;;;8.90;6.83;;;5.10;99.90;;;;;;5059463;28;20465;-49
2022/01/24 03:56:11;;;;;;;12.40;7.30;;;5.10;99.90;;;;;;5043114;28;20594;-49
2022/01/24 03:58:38;;;;;;;9.87;6.80;;;4.90;99.90;;;;;;5061125;28;20437;-48
2022/01/24 04:01:06;;;;;;;8.67;6.80;;;4.90;99.90;;;;;;5058610;28;20548;-52
2022/01/24 04:03:33;;;;;;;10.67;7.30;;;4.80;99.90;;;;;;5056448;28;20423;-48
2022/01/24 04:05:58;;;;;;;8.77;6.60;;;4.80;99.90;;;;;;5061817;28;20463;-51
2022/01/24 04:08:24;;;;;;;9.37;6.50;;;4.80;99.90;;;;;;5057431;28;20440;-51
2022/01/24 04:10:56;;;;;;;10.93;7.40;;;5.00;99.90;;;;;;5060424;28;20195;-50
2022/01/24 04:13:33;;;;;;;8.70;7.20;;;5.00;99.90;;;;;;5057383;28;20207;-48
2022/01/24 04:21:23;;;;;;;8.30;6.20;;;5.10;99.90;;;;;;5061462;28;20415;-50
2022/01/24 04:24:00;;;;;;;9.73;7.60;;;4.80;99.90;;;;;;5044848;28;20809;-48
2022/01/24 04:26:27;;;;;;;9.43;7.27;;;4.80;99.90;;;;;;5061652;28;20433;-50
2022/01/24 04:28:53;;;;;;;8.00;7.13;;;4.70;99.90;;;;;;5054102;28;20904;-47
2022/01/24 04:31:20;;;;;;;9.77;7.23;;;4.70;99.90;;;;;;5061585;28;20426;-47
2022/01/24 04:33:46;;;;;;;7.70;6.33;;;4.70;99.90;;;;;;5060399;28;21044;-49
2022/01/24 04:36:11;;;;;;;8.57;6.50;;;4.80;99.90;;;;;;5056587;28;20432;-51
2022/01/24 04:38:37;;;;;;;9.77;7.13;;;4.70;99.90;;;;;;5060741;28;20977;-52
2022/01/24 04:41:11;;;;;;;11.43;7.37;;;4.70;99.90;;;;;;5057389;28;20206;-50
2022/01/24 04:46:41;;;;;;;9.57;6.43;;;4.80;99.90;;;;;;5059747;28;20429;-48
2022/01/24 04:54:39;;;;;;;11.73;7.50;;;4.70;99.90;;;;;;5057352;28;20461;-50
2022/01/24 04:57:07;;;;;;;9.37;7.20;;;4.80;99.90;;;;;;5053603;28;20182;-49
2022/01/24 04:59:34;;;;;;;8.13;7.30;;;4.70;99.90;;;;;;5065471;28;20483;-51
2022/01/24 05:01:59;;;;;;;8.90;6.70;;;4.70;99.90;;;;;;5062843;28;20426;-50
2022/01/24 05:04:25;;;;;;;11.60;7.13;;;4.70;99.90;;;;;;5062147;28;20452;-51
2022/01/24 05:06:51;;;;;;;8.50;6.87;;;4.70;99.90;;;;;;5064936;28;20194;-47
2022/01/24 05:09:18;;;;;;;8.10;6.57;;;4.70;99.90;;;;;;5062702;28;20259;-50
2022/01/24 05:25:52;;;;;;;9.50;7.13;;;4.70;99.90;;;;;;5063800;28;20452;-48
2022/01/24 05:28:19;;;;;;;9.07;7.20;;;4.60;99.90;;;;;;5064194;28;20920;-51
2022/01/24 05:30:44;;;;;;;8.90;6.77;;;4.70;99.90;;;;;;5062079;28;20438;-51
2022/01/24 05:33:10;;;;;;;9.57;7.90;;;4.50;99.90;;;;;;5064608;28;20461;-48
2022/01/24 05:35:36;;;;;;;11.40;7.50;;;4.70;99.90;;;;;;5060347;28;20179;-48
2022/01/24 05:38:02;;;;;;;9.13;7.53;;;4.70;99.90;;;;;;5063879;28;20243;-48
2022/01/24 05:40:28;;;;;;;9.63;7.33;;;4.60;99.90;;;;;;5063093;28;20445;-50
2022/01/24 05:42:54;;;;;;;9.67;7.63;;;4.60;99.90;;;;;;5062494;28;20592;-50
2022/01/24 05:45:20;;;;;;;10.20;7.50;;;4.60;99.90;;;;;;5048597;28;20528;-49
2022/01/24 05:47:46;;;;;;;15.10;8.60;;;4.70;99.90;;;;;;5060041;28;20179;-47
2022/01/24 05:50:11;;;;;;;15.20;8.27;;;4.80;99.90;;;;;;5049961;28;20684;-51
2022/01/24 05:52:37;;;;;;;11.47;8.00;;;4.80;99.90;;;;;;5063183;28;20656;-52
2022/01/24 05:55:04;;;;;;;11.20;7.80;;;4.70;99.90;;;;;;5063240;28;20211;-48
2022/01/24 05:57:29;;;;;;;8.93;7.87;;;4.70;99.90;;;;;;5064024;28;20551;-47
2022/01/24 05:59:55;;;;;;;11.03;7.90;;;4.70;99.90;;;;;;5059544;28;20457;-47
2022/01/24 06:02:21;;;;;;;13.90;9.17;;;4.60;99.90;;;;;;5065336;28;20195;-49
2022/01/24 06:04:46;;;;;;;9.73;8.37;;;4.40;99.90;;;;;;5042692;28;20195;-49
2022/01/24 06:07:12;;;;;;;11.60;7.80;;;4.50;99.90;;;;;;5062175;28;20204;-49
2022/01/24 06:09:38;;;;;;;11.23;7.83;;;4.60;99.90;;;;;;5060453;28;20203;-48
2022/01/24 06:12:04;;;;;;;10.30;7.90;;;4.50;99.90;;;;;;5062419;28;20191;-48
2022/01/24 06:14:30;;;;;;;9.50;7.90;;;4.40;99.90;;;;;;5061015;28;20383;-46
2022/01/24 06:16:55;;;;;;;11.53;8.43;;;4.40;99.90;;;;;;5059448;28;21125;-49
2022/01/24 06:19:21;;;;;;;9.07;7.63;;;4.40;99.90;;;;;;5064293;28;20600;-47
2022/01/24 06:21:46;;;;;;;9.20;7.63;;;4.40;99.90;;;;;;5060777;28;20521;-51
2022/01/24 06:24:12;;;;;;;11.17;7.80;;;4.30;99.90;;;;;;5059305;28;20196;-48
2022/01/24 06:26:39;;;;;;;10.83;8.80;;;4.50;99.90;;;;;;5063627;28;20183;-48
2022/01/24 06:29:05;;;;;;;13.23;8.50;;;4.60;99.90;;;;;;5057210;28;20445;-48
2022/01/24 06:31:31;;;;;;;12.40;8.13;;;4.50;99.90;;;;;;5063809;28;20857;-49
2022/01/24 06:33:56;;;;;;;12.70;9.20;;;4.50;99.90;;;;;;5057264;28;20211;-50
2022/01/24 06:36:22;;;;;;;13.30;9.97;;;4.50;99.90;;;;;;5063018;28;20186;-48
2022/01/24 06:38:48;;;;;;;14.60;9.57;;;4.40;99.90;;;;;;5061832;28;20265;-48
2022/01/24 06:41:21;;;;;;;14.37;9.13;;;4.50;99.90;;;;;;5061320;28;20802;-47
2022/01/24 06:43:47;;;;;;;11.00;8.67;;;4.40;99.90;;;;;;5063743;28;20220;-49
2022/01/24 06:46:13;;;;;;;12.77;9.17;;;4.30;99.90;;;;;;5057297;28;20506;-47
2022/01/24 06:48:38;;;;;;;11.40;10.03;;;4.40;99.90;;;;;;5060101;28;20187;-48
2022/01/24 06:51:10;;;;;;;13.80;9.30;;;4.60;99.90;;;;;;5060925;28;20451;-48
2022/01/24 06:53:41;;;;;;;12.70;9.23;;;4.50;99.90;;;;;;5056967;28;20220;-47
2022/01/24 06:56:07;;;;;;;9.73;8.20;;;4.30;99.90;;;;;;5062364;28;20471;-47
2022/01/24 06:58:34;;;;;;;15.43;10.23;;;4.30;99.90;;;;;;5060458;28;20456;-49
2022/01/24 07:01:01;;;;;;;11.70;8.90;;;4.40;99.90;;;;;;5062590;28;20475;-48
2022/01/24 07:03:27;;;;;;;15.83;10.77;;;4.40;99.90;;;;;;5060077;28;20440;-48
2022/01/24 07:05:52;;;;;;;12.87;10.30;;;4.40;99.90;;;;;;5060657;28;20901;-50
2022/01/24 07:08:18;;;;;;;13.67;9.77;;;4.50;99.90;;;;;;5062004;28;20560;-49
2022/01/24 07:10:44;;;;;;;14.80;10.43;;;4.50;99.90;;;;;;5059105;28;20216;-48
2022/01/24 07:13:09;;;;;;;14.27;10.67;;;4.60;99.90;;;;;;5063210;28;20820;-51
2022/01/24 07:15:44;;;;;;;13.63;8.87;;;4.60;99.90;;;;;;5054593;28;20703;-48
2022/01/24 07:20:54;;;;;;;15.20;9.80;;;4.60;99.90;;;;;;5062977;28;20683;-50
2022/01/24 07:23:20;;;;;;;15.80;9.93;;;4.50;99.90;;;;;;5058545;28;20429;-48
2022/01/24 07:25:46;;;;;;;12.73;9.80;;;4.40;99.90;;;;;;5061004;28;20452;-50
2022/01/24 07:28:13;;;;;;;11.90;9.83;;;4.50;99.90;;;;;;5062541;28;20237;-48
2022/01/24 07:30:39;;;;;;;12.23;8.93;;;4.50;99.90;;;;;;5057012;28;20241;-47
2022/01/24 07:33:05;;;;;;;14.97;9.83;;;4.50;99.90;;;;;;5059218;28;20801;-47
2022/01/24 07:35:31;;;;;;;12.27;10.03;;;4.50;99.90;;;;;;5054504;28;20279;-52
2022/01/24 07:37:56;;;;;;;13.30;9.83;;;4.50;99.90;;;;;;5060673;28;20187;-49
2022/01/24 07:40:22;;;;;;;18.10;11.03;;;4.40;99.90;;;;;;5058032;28;20437;-49
2022/01/24 07:43:09;;;;;;;12.77;9.30;;;4.40;99.90;;;;;;5059730;28;20191;-52
2022/01/24 07:45:36;;;;;;;11.87;9.30;;;4.40;99.90;;;;;;5062813;28;20593;-52
2022/01/24 07:48:03;;;;;;;13.47;10.30;;;4.30;99.90;;;;;;5059159;28;20457;-50
2022/01/24 07:50:28;;;;;;;13.27;9.90;;;4.30;99.90;;;;;;5063313;28;20902;-47
2022/01/24 07:52:55;;;;;;;16.63;11.63;;;4.40;99.90;;;;;;5058498;28;20536;-52
2022/01/24 07:55:21;;;;;;;13.57;9.37;;;4.50;99.90;;;;;;5059644;28;20862;-49
2022/01/24 07:57:47;;;;;;;12.37;9.53;;;4.60;99.90;;;;;;5061534;28;20433;-52
2022/01/24 08:00:13;;;;;;;11.50;9.60;;;4.70;99.90;;;;;;5056626;28;20834;-50
2022/01/24 08:02:41;;;;;;;12.07;8.80;;;4.60;99.90;;;;;;5062638;28;20664;-48
2022/01/24 08:05:08;;;;;;;15.30;9.90;;;4.60;99.90;;;;;;5057674;28;20433;-47
2022/01/24 08:07:35;;;;;;;13.80;10.20;;;4.60;99.90;;;;;;5062472;28;20449;-47
2022/01/24 08:10:00;;;;;;;15.50;9.90;;;4.60;99.90;;;;;;5058737;28;20828;-49
2022/01/24 08:12:26;;;;;;;13.60;9.33;;;4.70;99.90;;;;;;5057427;28;20437;-51
2022/01/24 08:14:52;;;;;;;16.50;9.73;;;4.60;99.90;;;;;;5062068;28;20203;-49
2022/01/24 08:17:18;;;;;;;13.27;9.73;;;4.50;99.90;;;;;;5042775;28;20721;-47
2022/01/24 08:19:44;;;;;;;13.13;9.13;;;4.60;99.90;;;;;;5059656;28;20214;-48
2022/01/24 08:22:12;;;;;;;17.27;11.20;;;4.70;99.90;;;;;;5061375;28;20433;-48
2022/01/24 08:24:37;;;;;;;12.53;8.87;;;4.60;99.90;;;;;;5059425;28;20424;-47
2022/01/24 08:27:03;;;;;;;17.03;11.00;;;4.70;99.90;;;;;;5058953;28;20447;-49
2022/01/24 08:29:29;;;;;;;13.80;10.33;;;4.70;99.90;;;;;;5059300;28;20227;-48
2022/01/24 08:31:55;;;;;;;15.13;9.60;;;4.70;99.90;;;;;;5045867;28;20429;-50
2022/01/24 08:34:20;;;;;;;12.50;10.20;;;4.70;99.90;;;;;;5060907;28;20591;-47
2022/01/24 08:36:47;;;;;;;15.83;10.00;;;4.70;99.90;;;;;;5065238;28;20685;-49
2022/01/24 08:39:12;;;;;;;14.83;10.63;;;4.70;99.90;;;;;;5064826;28;20208;-49
2022/01/24 08:45:43;;;;;;;14.73;10.33;;;4.80;99.90;;;;;;5059742;28;20802;-49
2022/01/24 08:47:19;;;;;;;17.10;12.30;;;4.80;99.90;;;;;;5066938;28;20421;-47
2022/01/24 08:49:45;;;;;;;16.10;11.63;;;4.90;99.90;;;;;;5063268;28;20667;-51
2022/01/24 08:52:11;;;;;;;15.80;10.90;;;4.90;99.90;;;;;;5066882;28;20441;-49
2022/01/24 08:54:36;;;;;;;14.37;10.33;;;4.90;99.90;;;;;;5062648;28;20708;-48
2022/01/24 08:57:03;;;;;;;14.13;10.00;;;4.90;99.90;;;;;;5064167;28;20197;-52
2022/01/24 08:59:30;;;;;;;15.50;10.60;;;5.00;99.90;;;;;;5051788;28;20591;-47
2022/01/24 09:01:56;;;;;;;14.30;9.60;;;5.00;99.90;;;;;;5061071;28;20433;-51
2022/01/24 09:04:22;;;;;;;16.73;10.40;;;4.90;99.90;;;;;;5054065;28;20425;-48
2022/01/24 09:06:48;;;;;;;13.30;10.10;;;5.00;99.90;;;;;;5062959;28;20198;-47
2022/01/24 09:09:15;;;;;;;15.57;11.20;;;5.00;99.90;;;;;;5061256;28;20214;-48
2022/01/24 09:11:41;;;;;;;18.13;12.27;;;5.10;99.90;;;;;;5061994;28;20424;-48
2022/01/24 09:14:08;;;;;;;13.90;10.27;;;5.20;99.90;;;;;;5062171;28;20473;-48
2022/01/24 09:16:35;;;;;;;13.37;10.00;;;5.10;99.90;;;;;;5063011;28;20189;-49
2022/01/24 09:19:02;;;;;;;11.33;9.40;;;5.20;99.90;;;;;;5060101;28;20986;-49
2022/01/24 09:21:28;;;;;;;11.67;9.00;;;5.20;99.90;;;;;;5063383;28;20429;-52
2022/01/24 09:23:54;;;;;;;14.07;11.27;;;5.30;99.90;;;;;;5061126;28;20490;-53
2022/01/24 09:26:20;;;;;;;14.87;10.40;;;5.40;99.90;;;;;;5060421;28;21010;-47
2022/01/24 09:28:46;;;;;;;13.37;10.80;;;5.30;99.90;;;;;;5053192;28;20348;-50
2022/01/24 09:31:13;;;;;;;19.20;11.30;;;5.40;99.90;;;;;;5059875;28;20527;-48
2022/01/24 09:33:39;;;;;;;14.20;10.07;;;5.40;99.90;;;;;;5061580;28;20518;-49
2022/01/24 09:36:05;;;;;;;16.13;10.27;;;5.30;99.90;;;;;;5046528;28;20436;-49
2022/01/24 09:38:33;;;;;;;14.03;10.20;;;5.40;99.90;;;;;;5063257;28;20193;-50
2022/01/24 09:41:09;;;;;;;14.20;10.83;;;5.50;99.90;;;;;;5065787;28;20421;-47
2022/01/24 09:43:35;;;;;;;13.20;9.80;;;5.60;99.90;;;;;;5059598;28;20438;-49
2022/01/24 09:46:02;;;;;;;20.73;10.70;;;5.60;99.90;;;;;;5050683;28;20440;-49
2022/01/24 09:48:29;;;;;;;13.20;11.13;;;5.60;99.90;;;;;;5059852;28;20445;-49
2022/01/24 09:50:55;;;;;;;11.60;9.90;;;5.70;99.90;;;;;;5062390;28;20421;-46
2022/01/24 09:53:23;;;;;;;13.10;10.23;;;5.80;99.90;;;;;;5062825;28;20989;-52
2022/01/24 09:55:49;;;;;;;16.57;10.23;;;5.80;99.90;;;;;;5059407;28;20950;-50
2022/01/24 09:58:16;;;;;;;17.63;10.20;;;5.80;99.90;;;;;;5062890;28;20417;-51
2022/01/24 10:00:42;;;;;;;17.93;10.87;;;5.90;99.90;;;;;;5059620;28;20448;-51
2022/01/24 10:03:09;;;;;;;13.20;10.37;;;5.90;99.90;;;;;;5062831;28;20425;-49
2022/01/24 10:05:39;;;;;;;16.07;10.00;;;5.90;99.90;;;;;;5057958;28;20417;-47
2022/01/24 10:08:15;;;;;;;14.83;10.10;;;5.90;99.90;;;;;;5060561;28;20484;-48
2022/01/24 10:10:48;;;;;;;12.47;10.20;;;5.90;99.90;;;;;;5053009;28;20437;-47
2022/01/24 10:19:07;;;;;;;13.20;10.33;;;6.10;99.90;;;;;;5048876;28;20437;-52
2022/01/24 10:22:02;;;;;;;13.87;11.07;;;6.10;99.90;;;;;;5058922;28;20433;-51
2022/01/24 10:24:45;;;;;;;14.77;11.40;;;6.20;99.90;;;;;;5057876;28;21053;-49
2022/01/24 10:27:39;;;;;;;13.40;9.60;;;6.10;99.90;;;;;;5065197;28;20527;-49
2022/01/24 10:30:10;;;;;;;14.00;10.17;;;6.00;99.90;;;;;;5039046;28;20810;-48
2022/01/24 10:32:43;;;;;;;13.10;10.70;;;6.10;99.90;;;;;;5052191;28;20765;-49
2022/01/24 10:35:38;;;;;;;15.53;10.97;;;6.20;99.90;;;;;;5060088;28;20453;-49
2022/01/24 10:43:37;;;;;;;12.10;9.70;;;6.30;99.90;;;;;;5062423;28;21005;-48
2022/01/24 10:46:03;;;;;;;15.33;10.17;;;6.30;99.90;;;;;;5057798;28;20442;-49
2022/01/24 10:48:33;;;;;;;11.90;10.60;;;6.40;99.90;;;;;;5064348;28;20420;-50
2022/01/24 10:51:15;;;;;;;14.63;9.63;;;6.30;99.90;;;;;;5043975;28;20445;-50
2022/01/24 10:53:49;;;;;;;15.83;10.50;;;6.50;99.90;;;;;;5058907;28;20941;-52
2022/01/24 10:56:32;;;;;;;14.17;11.10;;;6.60;99.90;;;;;;5062440;28;20502;-51
2022/01/24 10:59:15;;;;;;;15.20;10.27;;;6.60;99.90;;;;;;5058553;28;20519;-51
2022/01/24 11:01:46;;;;;;;15.60;10.27;;;6.50;99.90;;;;;;5059194;28;20829;-52
2022/01/24 11:04:14;;;;;;;12.30;10.17;;;6.50;99.90;;;;;;5043661;28;20465;-52
2022/01/24 11:06:42;;;;;;;12.17;10.20;;;6.60;99.90;;;;;;5045795;28;20469;-49
2022/01/24 11:09:14;;;;;;;13.60;10.40;;;6.60;99.90;;;;;;5063409;28;20497;-50
2022/01/24 11:11:40;;;;;;;13.23;10.03;;;6.60;99.90;;;;;;5061442;28;20432;-51
2022/01/24 11:14:10;;;;;;;15.60;11.00;;;6.60;99.90;;;;;;5044769;28;20465;-50
2022/01/24 11:16:38;;;;;;;16.13;11.50;;;6.70;99.90;;;;;;5057963;28;20433;-48
2022/01/24 11:19:11;;;;;;;15.67;9.80;;;6.60;99.90;;;;;;5056497;28;20521;-48
2022/01/24 11:21:38;;;;;;;15.60;10.93;;;6.70;99.90;;;;;;5058640;28;20438;-47
2022/01/24 11:24:07;;;;;;;17.13;11.50;;;6.70;99.90;;;;;;5057375;28;20526;-51
2022/01/24 11:26:34;;;;;;;13.90;10.20;;;6.80;99.90;;;;;;5064097;28;20441;-47
2022/01/24 11:29:00;;;;;;;14.20;10.73;;;6.90;99.90;;;;;;5060529;28;20674;-52
2022/01/24 11:31:46;;;;;;;13.90;10.77;;;6.90;99.90;;;;;;5044149;28;20467;-49
2022/01/24 11:34:18;;;;;;;12.40;9.50;;;6.90;99.90;;;;;;5047248;28;20608;-50
2022/01/24 11:36:45;;;;;;;12.30;10.13;;;6.90;99.90;;;;;;5059440;28;20533;-50
2022/01/24 11:39:11;;;;;;;11.80;9.53;;;6.90;99.90;;;;;;5050438;28;20535;-47
2022/01/24 11:41:40;;;;;;;14.70;9.13;;;7.00;99.90;;;;;;5062719;28;20692;-49
2022/01/24 11:44:17;;;;;;;11.93;10.23;;;7.10;99.90;;;;;;5060140;28;20433;-52
2022/01/24 11:46:47;;;;;;;12.63;10.33;;;7.20;99.90;;;;;;5061728;28;20474;-47
2022/01/24 11:49:20;;;;;;;14.20;10.40;;;7.20;99.90;;;;;;5057208;28;20703;-49
2022/01/24 11:51:49;;;;;;;12.63;10.47;;;7.20;99.90;;;;;;5062157;28;20436;-48
2022/01/24 11:54:32;;;;;;;14.13;9.80;;;7.30;99.90;;;;;;5058746;28;20449;-48
2022/01/24 11:57:16;;;;;;;13.63;10.40;;;7.40;99.90;;;;;;5040251;28;20449;-52
2022/01/24 11:59:45;;;;;;;11.60;9.40;;;7.40;99.90;;;;;;5063123;28;21103;-47
2022/01/24 12:02:15;;;;;;;12.33;10.30;;;7.50;99.90;;;;;;5060999;28;20429;-49
2022/01/24 12:05:15;;;;;;;13.50;10.43;;;7.70;99.90;;;;;;5045323;28;20985;-49
2022/01/24 12:08:03;;;;;;;14.10;9.47;;;7.60;99.90;;;;;;5010556;28;20436;-47
2022/01/24 12:10:35;;;;;;;13.57;9.10;;;7.70;99.90;;;;;;5062146;28;20454;-50
2022/01/24 12:13:03;;;;;;;12.67;9.53;;;7.90;99.90;;;;;;5062713;28;20811;-49
2022/01/24 12:15:41;;;;;;;11.67;9.20;;;8.00;99.90;;;;;;5065054;28;20429;-49
2022/01/24 12:18:09;;;;;;;11.47;10.03;;;8.00;99.90;;;;;;5062839;28;20955;-49
2022/01/24 12:20:35;;;;;;;11.90;8.87;;;8.20;99.90;;;;;;5068032;28;20457;-49
2022/01/24 12:23:24;;;;;;;11.70;9.40;;;8.30;99.90;;;;;;5064357;28;20822;-50
2022/01/24 12:26:07;;;;;;;10.77;8.90;;;8.80;99.90;;;;;;5061194;28;20206;-48
2022/01/24 12:28:44;;;;;;;9.43;8.40;;;10.80;99.90;;;;;;5066480;28;20489;-48
2022/01/24 12:31:30;;;;;;;12.13;8.60;;;12.60;99.90;;;;;;5061000;28;20445;-47
2022/01/24 12:34:04;;;;;;;12.93;9.70;;;14.20;99.90;;;;;;5047552;28;20481;-48
2022/01/24 12:36:46;;;;;;;11.70;9.47;;;16.30;99.90;;;;;;5062621;28;20459;-52
2022/01/24 12:39:33;;;;;;;9.27;8.27;;;17.10;98.00;;;;;;5061593;28;20496;-49
2022/01/24 12:42:32;;;;;;;10.80;9.03;;;18.10;94.40;;;;;;5063517;28;20433;-48
2022/01/24 12:47:42;;;;;;;10.27;9.27;;;19.90;79.90;;;;;;5062812;28;20529;-51
2022/01/24 12:50:10;;;;;;;9.37;8.37;;;20.60;74.50;;;;;;5064709;28;20465;-49
2022/01/24 12:52:37;;;;;;;8.97;8.10;;;21.30;70.90;;;;;;5064016;28;20436;-49
2022/01/24 12:55:04;;;;;;;9.47;8.57;;;22.10;65.80;;;;;;5060278;28;20491;-51
2022/01/24 12:57:32;;;;;;;9.37;8.43;;;22.60;59.80;;;;;;5066137;28;20520;-51
2022/01/24 13:00:10;;;;;;;9.37;8.53;;;22.80;59.80;;;;;;5060697;28;20483;-46
2022/01/24 13:02:40;;;;;;;10.10;9.20;;;23.50;56.90;;;;;;5065171;28;20433;-49
2022/01/24 13:05:17;;;;;;;9.17;8.30;;;23.50;53.70;;;;;;5063160;28;21016;-48
2022/01/24 13:07:54;;;;;;;9.00;8.20;;;24.30;53.30;;;;;;5059661;28;20437;-51
2022/01/24 13:10:23;;;;;;;9.27;8.37;;;24.80;52.30;;;;;;5064275;28;20810;-47
2022/01/24 13:13:06;;;;;;;9.00;8.20;;;25.30;50.60;;;;;;5064217;28;20429;-48
2022/01/24 13:21:22;;;;;;;9.03;7.80;;;24.40;49.60;;;;;;5060818;28;20665;-53
2022/01/24 13:23:51;;;;;;;7.97;7.27;;;24.60;49.10;;;;;;5062624;28;20561;-49
2022/01/24 13:26:17;;;;;;;9.43;8.53;;;24.60;47.70;;;;;;5063080;28;20803;-50
2022/01/24 13:28:43;;;;;;;9.07;8.03;;;24.60;48.10;;;;;;5057739;28;20841;-50
2022/01/24 13:31:10;;;;;;;9.23;8.40;;;24.00;48.30;;;;;;5065346;28;20179;-49
2022/01/24 13:33:40;;;;;;;8.63;7.83;;;23.70;48.20;;;;;;5063768;28;20215;-49
2022/01/24 13:36:08;;;;;;;9.63;8.63;;;23.00;48.70;;;;;;5060988;28;20426;-53
2022/01/24 13:38:46;;;;;;;10.40;7.87;;;22.60;48.90;;;;;;5067347;28;20425;-51
2022/01/24 13:41:17;;;;;;;8.30;7.37;;;21.40;49.60;;;;;;5056776;28;20433;-53
2022/01/24 13:43:46;;;;;;;9.17;8.33;;;20.10;50.80;;;;;;5063106;28;20472;-53
2022/01/24 13:46:27;;;;;;;9.13;8.33;;;19.80;51.90;;;;;;5062652;28;20792;-50
2022/01/24 13:49:13;;;;;;;9.87;8.13;;;19.20;52.80;;;;;;5058787;28;20818;-50
2022/01/24 13:51:43;;;;;;;9.50;8.17;;;18.00;54.10;;;;;;5046648;28;20949;-48
2022/01/24 13:54:20;;;;;;;10.37;7.50;;;17.50;55.60;;;;;;5061580;28;20819;-53
2022/01/24 13:56:48;;;;;;;9.47;8.57;;;17.00;56.30;;;;;;5060446;28;20860;-49
2022/01/24 13:59:19;;;;;;;9.70;8.10;;;16.40;57.60;;;;;;5061824;28;20950;-49
2022/01/24 14:01:55;;;;;;;8.50;7.60;;;15.80;58.20;;;;;;5060281;28;20424;-50
2022/01/24 14:04:32;;;;;;;7.97;7.17;;;15.50;59.50;;;;;;5061314;28;20468;-48
2022/01/24 14:07:04;;;;;;;8.50;7.60;;;15.20;60.40;;;;;;5061335;28;20437;-49
2022/01/24 14:09:52;;;;;;;7.50;6.73;;;14.90;61.40;;;;;;5058910;28;20454;-49
2022/01/24 14:12:27;;;;;;;7.83;6.67;;;14.40;63.00;;;;;;5062801;28;20525;-49
2022/01/24 14:15:09;;;;;;;8.77;7.87;;;13.90;64.30;;;;;;5062451;28;20443;-49
2022/01/24 14:18:07;;;;;;;10.00;8.23;;;13.80;65.60;;;;;;5058190;28;20514;-51
2022/01/24 14:20:33;;;;;;;9.00;7.43;;;13.60;66.70;;;;;;5063667;28;20753;-49
2022/01/24 14:22:59;;;;;;;7.60;6.90;;;13.30;67.90;;;;;;5048146;28;20469;-51
2022/01/24 14:25:31;;;;;;;8.87;7.20;;;13.10;68.70;;;;;;5061473;28;20465;-51
2022/01/24 14:27:59;;;;;;;7.90;6.90;;;13.00;69.50;;;;;;5061722;28;20519;-47
2022/01/24 14:30:26;;;;;;;9.70;7.80;;;12.80;70.60;;;;;;5044439;28;20469;-49
2022/01/24 14:33:07;;;;;;;7.97;7.07;;;12.60;71.80;;;;;;5064601;28;20794;-48
2022/01/24 14:35:49;;;;;;;10.07;9.10;;;12.40;73.40;;;;;;5059184;28;20433;-51
2022/01/24 14:38:32;;;;;;;10.43;6.90;;;12.40;73.70;;;;;;5061017;28;20425;-51
2022/01/24 14:41:01;;;;;;;7.70;6.23;;;12.30;73.60;;;;;;5063623;28;20413;-49
2022/01/24 14:46:24;;;;;;;9.20;6.87;;;12.30;74.90;;;;;;5062980;28;20421;-47
2022/01/24 14:48:54;;;;;;;10.03;6.80;;;12.00;75.50;;;;;;5061502;28;20815;-46
2022/01/24 14:51:30;;;;;;;7.57;6.70;;;11.90;76.20;;;;;;5057892;28;20521;-50
2022/01/24 14:53:58;;;;;;;8.00;6.60;;;11.90;77.10;;;;;;5062378;28;20424;-49
2022/01/24 14:56:25;;;;;;;11.73;6.53;;;11.80;77.60;;;;;;5061614;28;20438;-49
2022/01/24 14:58:51;;;;;;;7.77;5.77;;;11.80;78.70;;;;;;5063082;28;20501;-49
2022/01/24 15:01:17;;;;;;;6.93;6.27;;;11.40;79.80;;;;;;5062735;28;20915;-47
2022/01/24 15:03:43;;;;;;;6.70;6.10;;;11.50;80.70;;;;;;5060861;28;20457;-48
2022/01/24 15:06:11;;;;;;;6.90;5.43;;;11.50;81.30;;;;;;5063935;28;20453;-49